Main page
METAR-TAF:

METAR-TAF

Airports :

Pointe-à-Pitre, Guadeloupe

Pointe-à-Pitre International Airport

latitude: 16-16N, longitude: 061-31W, elevation: 11 m

Current weather observation

The report was made 22 minutes ago, at 21:00 UTC
Wind 9 kt from the East, varying between Northeast and Southeast
Temperature 30°C
Humidity 66%
Pressure 1015 hPa
Visibility 10 km or more
Scattered clouds at a height of 2800 ft
Scattered clouds at a height of 3300 ft

METAR: TFFR 222100Z AUTO 10009KT 050V140 9999 SCT028 SCT033 30/23 Q1015 NOSIG

Time: 17:22 (21:22 UTC)

Forecast

The report was made 4 hours and 22 minutes ago, at 17:00 UTC
Forecast valid from 22 at 18 UTC to 23 at 18 UTC
Wind 15 kt from the East/Southeast
Visibility 10 km or more
Broken clouds at a height of 3000 ft
Becoming
from 23 at 00 UTC to 23 at 02 UTC
Wind 3 kt from variable directions
Becoming
from 23 at 12 UTC to 23 at 14 UTC
Wind 15 kt from the East

TAF: TFFR 221700Z 2218/2318 11015KT 9999 BKN030 BECMG 2300/2302 VRB03KT BECMG 2312/2314 10015KT

Weather observations and forecasts of more than 4000 airports (METAR and TAF reports).

The available stations are represented by yellow and red dots on the map.

Hover mouse over dot to see the name of the station.

Then click to see weather observations and forecasts.

To change the map : click on the green buttons with a black cross to zoom in, on the green button with a dash to zoom out, or on the green arrows for adjacent maps.


METAR-TAF: